sensor_id;sensor_type;location;lat;lon;timestamp;P1;durP1;ratioP1;P2;durP2;ratioP2
47155;SDS011;32908;52.344;16.858;2022-08-11T00:02:27;5.00;;;2.90;;
47155;SDS011;32908;52.344;16.858;2022-08-11T00:05:01;7.10;;;3.20;;
47155;SDS011;32908;52.344;16.858;2022-08-11T00:07:32;5.60;;;2.97;;
47155;SDS011;32908;52.344;16.858;2022-08-11T00:10:01;7.07;;;3.00;;
47155;SDS011;32908;52.344;16.858;2022-08-11T00:12:31;4.97;;;3.20;;
47155;SDS011;32908;52.344;16.858;2022-08-11T00:14:59;4.60;;;3.00;;
47155;SDS011;32908;52.344;16.858;2022-08-11T00:17:30;5.47;;;3.20;;
47155;SDS011;32908;52.344;16.858;2022-08-11T00:20:01;3.97;;;2.90;;
47155;SDS011;32908;52.344;16.858;2022-08-11T00:22:32;6.47;;;3.00;;
47155;SDS011;32908;52.344;16.858;2022-08-11T00:25:08;4.33;;;3.03;;
47155;SDS011;32908;52.344;16.858;2022-08-11T00:27:39;4.20;;;3.20;;
47155;SDS011;32908;52.344;16.858;2022-08-11T00:30:09;9.77;;;3.30;;
47155;SDS011;32908;52.344;16.858;2022-08-11T00:32:40;6.83;;;3.10;;
47155;SDS011;32908;52.344;16.858;2022-08-11T00:35:11;8.90;;;3.53;;
47155;SDS011;32908;52.344;16.858;2022-08-11T00:37:44;8.30;;;3.75;;
47155;SDS011;32908;52.344;16.858;2022-08-11T00:40:22;6.60;;;3.00;;
47155;SDS011;32908;52.344;16.858;2022-08-11T00:42:59;5.77;;;2.87;;
47155;SDS011;32908;52.344;16.858;2022-08-11T00:45:34;9.40;;;3.20;;
47155;SDS011;32908;52.344;16.858;2022-08-11T00:48:10;5.90;;;3.40;;
47155;SDS011;32908;52.344;16.858;2022-08-11T00:50:50;7.73;;;3.03;;
47155;SDS011;32908;52.344;16.858;2022-08-11T00:53:33;6.40;;;3.00;;
47155;SDS011;32908;52.344;16.858;2022-08-11T00:59:30;6.90;;;3.10;;
47155;SDS011;32908;52.344;16.858;2022-08-11T01:02:10;4.80;;;3.00;;
47155;SDS011;32908;52.344;16.858;2022-08-11T01:04:55;5.90;;;3.17;;
47155;SDS011;32908;52.344;16.858;2022-08-11T01:10:55;5.83;;;2.73;;
47155;SDS011;32908;52.344;16.858;2022-08-11T01:17:12;5.37;;;2.90;;
47155;SDS011;32908;52.344;16.858;2022-08-11T01:20:17;5.70;;;2.83;;
47155;SDS011;32908;52.344;16.858;2022-08-11T01:26:43;4.13;;;2.90;;
47155;SDS011;32908;52.344;16.858;2022-08-11T01:35:46;6.80;;;2.93;;
47155;SDS011;32908;52.344;16.858;2022-08-11T01:38:34;4.40;;;3.00;;
47155;SDS011;32908;52.344;16.858;2022-08-11T01:41:31;4.20;;;3.33;;
47155;SDS011;32908;52.344;16.858;2022-08-11T01:47:25;7.53;;;3.30;;
47155;SDS011;32908;52.344;16.858;2022-08-11T01:50:22;7.10;;;3.27;;
47155;SDS011;32908;52.344;16.858;2022-08-11T01:53:02;6.47;;;3.17;;
47155;SDS011;32908;52.344;16.858;2022-08-11T01:55:38;6.60;;;3.10;;
47155;SDS011;32908;52.344;16.858;2022-08-11T01:58:14;10.23;;;3.57;;
47155;SDS011;32908;52.344;16.858;2022-08-11T02:00:49;7.97;;;3.73;;
47155;SDS011;32908;52.344;16.858;2022-08-11T02:03:23;5.93;;;3.30;;
47155;SDS011;32908;52.344;16.858;2022-08-11T02:06:01;7.97;;;2.93;;
47155;SDS011;32908;52.344;16.858;2022-08-11T02:09:02;11.40;;;3.97;;
47155;SDS011;32908;52.344;16.858;2022-08-11T02:11:35;12.67;;;3.20;;
47155;SDS011;32908;52.344;16.858;2022-08-11T02:14:11;10.87;;;3.73;;
47155;SDS011;32908;52.344;16.858;2022-08-11T02:16:50;10.63;;;3.33;;
47155;SDS011;32908;52.344;16.858;2022-08-11T02:19:29;10.67;;;4.00;;
47155;SDS011;32908;52.344;16.858;2022-08-11T02:22:27;6.13;;;3.37;;
47155;SDS011;32908;52.344;16.858;2022-08-11T02:25:22;7.10;;;3.10;;
47155;SDS011;32908;52.344;16.858;2022-08-11T02:27:56;7.07;;;3.40;;
47155;SDS011;32908;52.344;16.858;2022-08-11T02:30:32;6.43;;;3.00;;
47155;SDS011;32908;52.344;16.858;2022-08-11T02:33:09;7.17;;;3.77;;
47155;SDS011;32908;52.344;16.858;2022-08-11T02:35:54;10.30;;;4.20;;
47155;SDS011;32908;52.344;16.858;2022-08-11T02:38:37;9.47;;;4.40;;
47155;SDS011;32908;52.344;16.858;2022-08-11T02:41:12;10.43;;;5.07;;
47155;SDS011;32908;52.344;16.858;2022-08-11T02:44:12;12.05;;;5.10;;
47155;SDS011;32908;52.344;16.858;2022-08-11T02:49:23;10.80;;;4.50;;
47155;SDS011;32908;52.344;16.858;2022-08-11T02:52:17;14.27;;;5.13;;
47155;SDS011;32908;52.344;16.858;2022-08-11T02:54:52;12.97;;;5.13;;
47155;SDS011;32908;52.344;16.858;2022-08-11T02:57:34;9.10;;;3.97;;
47155;SDS011;32908;52.344;16.858;2022-08-11T03:00:08;7.07;;;4.20;;
47155;SDS011;32908;52.344;16.858;2022-08-11T03:03:11;7.53;;;3.97;;
47155;SDS011;32908;52.344;16.858;2022-08-11T03:05:55;10.73;;;4.83;;
47155;SDS011;32908;52.344;16.858;2022-08-11T03:08:38;8.83;;;4.80;;
47155;SDS011;32908;52.344;16.858;2022-08-11T03:11:18;8.77;;;4.20;;
47155;SDS011;32908;52.344;16.858;2022-08-11T03:14:13;8.47;;;4.17;;
47155;SDS011;32908;52.344;16.858;2022-08-11T03:17:05;9.53;;;4.30;;
47155;SDS011;32908;52.344;16.858;2022-08-11T03:19:45;9.67;;;5.07;;
47155;SDS011;32908;52.344;16.858;2022-08-11T03:22:21;10.60;;;5.10;;
47155;SDS011;32908;52.344;16.858;2022-08-11T03:24:55;8.13;;;4.63;;
47155;SDS011;32908;52.344;16.858;2022-08-11T03:27:33;11.08;;;5.12;;
47155;SDS011;32908;52.344;16.858;2022-08-11T03:30:10;9.03;;;5.07;;
47155;SDS011;32908;52.344;16.858;2022-08-11T03:32:47;13.73;;;5.47;;
47155;SDS011;32908;52.344;16.858;2022-08-11T03:35:36;8.13;;;4.77;;
47155;SDS011;32908;52.344;16.858;2022-08-11T03:38:11;12.57;;;4.87;;
47155;SDS011;32908;52.344;16.858;2022-08-11T03:41:02;11.10;;;4.57;;
47155;SDS011;32908;52.344;16.858;2022-08-11T03:43:54;9.47;;;4.43;;
47155;SDS011;32908;52.344;16.858;2022-08-11T03:46:47;9.80;;;4.70;;
47155;SDS011;32908;52.344;16.858;2022-08-11T03:49:29;11.77;;;4.83;;
47155;SDS011;32908;52.344;16.858;2022-08-11T03:52:06;6.43;;;4.73;;
47155;SDS011;32908;52.344;16.858;2022-08-11T03:54:45;11.00;;;4.23;;
47155;SDS011;32908;52.344;16.858;2022-08-11T03:57:32;8.05;;;4.70;;
47155;SDS011;32908;52.344;16.858;2022-08-11T04:00:24;8.95;;;4.80;;
47155;SDS011;32908;52.344;16.858;2022-08-11T04:03:19;9.03;;;4.20;;
47155;SDS011;32908;52.344;16.858;2022-08-11T04:09:14;11.13;;;4.60;;
47155;SDS011;32908;52.344;16.858;2022-08-11T04:12:17;9.70;;;3.97;;
47155;SDS011;32908;52.344;16.858;2022-08-11T04:15:11;9.47;;;4.80;;
47155;SDS011;32908;52.344;16.858;2022-08-11T04:18:15;9.20;;;4.87;;
47155;SDS011;32908;52.344;16.858;2022-08-11T04:21:07;12.28;;;5.37;;
47155;SDS011;32908;52.344;16.858;2022-08-11T04:23:52;12.37;;;5.42;;
47155;SDS011;32908;52.344;16.858;2022-08-11T04:26:36;14.67;;;6.33;;
47155;SDS011;32908;52.344;16.858;2022-08-11T04:29:43;9.60;;;5.40;;
47155;SDS011;32908;52.344;16.858;2022-08-11T04:32:34;11.03;;;5.93;;
47155;SDS011;32908;52.344;16.858;2022-08-11T04:38:08;12.30;;;6.23;;
47155;SDS011;32908;52.344;16.858;2022-08-11T04:47:20;11.63;;;4.97;;
47155;SDS011;32908;52.344;16.858;2022-08-11T04:50:21;9.87;;;5.33;;
47155;SDS011;32908;52.344;16.858;2022-08-11T04:53:21;8.93;;;4.80;;
47155;SDS011;32908;52.344;16.858;2022-08-11T04:56:16;12.67;;;5.57;;
47155;SDS011;32908;52.344;16.858;2022-08-11T05:05:35;8.57;;;5.50;;
47155;SDS011;32908;52.344;16.858;2022-08-11T05:08:28;6.30;;;4.97;;
47155;SDS011;32908;52.344;16.858;2022-08-11T05:11:24;12.47;;;5.37;;
47155;SDS011;32908;52.344;16.858;2022-08-11T05:14:13;11.43;;;5.03;;
47155;SDS011;32908;52.344;16.858;2022-08-11T05:17:32;8.23;;;5.33;;
47155;SDS011;32908;52.344;16.858;2022-08-11T05:20:21;6.80;;;4.90;;
47155;SDS011;32908;52.344;16.858;2022-08-11T05:23:07;11.63;;;5.50;;
47155;SDS011;32908;52.344;16.858;2022-08-11T05:25:55;8.23;;;5.17;;
47155;SDS011;32908;52.344;16.858;2022-08-11T05:28:45;12.87;;;5.90;;
47155;SDS011;32908;52.344;16.858;2022-08-11T05:31:36;9.97;;;5.43;;
47155;SDS011;32908;52.344;16.858;2022-08-11T05:34:27;9.43;;;5.17;;
47155;SDS011;32908;52.344;16.858;2022-08-11T05:37:20;10.77;;;5.40;;
47155;SDS011;32908;52.344;16.858;2022-08-11T05:39:54;11.27;;;5.13;;
47155;SDS011;32908;52.344;16.858;2022-08-11T05:42:48;9.95;;;5.20;;
47155;SDS011;32908;52.344;16.858;2022-08-11T05:45:40;10.10;;;5.77;;
47155;SDS011;32908;52.344;16.858;2022-08-11T05:48:29;11.05;;;4.72;;
47155;SDS011;32908;52.344;16.858;2022-08-11T05:51:18;14.03;;;5.43;;
47155;SDS011;32908;52.344;16.858;2022-08-11T05:54:06;10.70;;;4.93;;
47155;SDS011;32908;52.344;16.858;2022-08-11T05:56:55;10.70;;;5.13;;
47155;SDS011;32908;52.344;16.858;2022-08-11T05:59:25;12.13;;;5.07;;
47155;SDS011;32908;52.344;16.858;2022-08-11T06:01:59;10.17;;;5.17;;
47155;SDS011;32908;52.344;16.858;2022-08-11T06:04:28;8.37;;;5.30;;
47155;SDS011;32908;52.344;16.858;2022-08-11T06:06:57;14.03;;;5.40;;
47155;SDS011;32908;52.344;16.858;2022-08-11T06:09:30;13.40;;;5.30;;
47155;SDS011;32908;52.344;16.858;2022-08-11T06:12:02;13.40;;;5.53;;
47155;SDS011;32908;52.344;16.858;2022-08-11T06:14:34;11.27;;;5.17;;
47155;SDS011;32908;52.344;16.858;2022-08-11T06:17:09;17.10;;;5.23;;
47155;SDS011;32908;52.344;16.858;2022-08-11T06:19:39;15.97;;;4.47;;
47155;SDS011;32908;52.344;16.858;2022-08-11T06:22:10;7.73;;;4.30;;
47155;SDS011;32908;52.344;16.858;2022-08-11T06:24:50;12.67;;;4.80;;
47155;SDS011;32908;52.344;16.858;2022-08-11T06:27:19;11.83;;;4.03;;
47155;SDS011;32908;52.344;16.858;2022-08-11T06:29:49;12.00;;;5.00;;
47155;SDS011;32908;52.344;16.858;2022-08-11T06:32:19;8.03;;;3.73;;
47155;SDS011;32908;52.344;16.858;2022-08-11T06:34:54;11.33;;;4.57;;
47155;SDS011;32908;52.344;16.858;2022-08-11T06:37:34;11.63;;;3.70;;
47155;SDS011;32908;52.344;16.858;2022-08-11T06:40:15;8.43;;;3.90;;
47155;SDS011;32908;52.344;16.858;2022-08-11T06:42:57;9.83;;;3.80;;
47155;SDS011;32908;52.344;16.858;2022-08-11T06:48:02;9.10;;;3.40;;
47155;SDS011;32908;52.344;16.858;2022-08-11T06:50:36;12.47;;;4.17;;
47155;SDS011;32908;52.344;16.858;2022-08-11T06:53:23;8.40;;;4.05;;
47155;SDS011;32908;52.344;16.858;2022-08-11T06:55:53;7.80;;;3.40;;
47155;SDS011;32908;52.344;16.858;2022-08-11T06:58:46;8.30;;;3.30;;
47155;SDS011;32908;52.344;16.858;2022-08-11T07:01:37;11.33;;;3.80;;
47155;SDS011;32908;52.344;16.858;2022-08-11T07:04:13;11.30;;;3.20;;
47155;SDS011;32908;52.344;16.858;2022-08-11T07:06:52;6.60;;;3.50;;
47155;SDS011;32908;52.344;16.858;2022-08-11T07:12:51;12.93;;;3.20;;
47155;SDS011;32908;52.344;16.858;2022-08-11T07:15:40;9.07;;;2.87;;
47155;SDS011;32908;52.344;16.858;2022-08-11T07:18:10;10.37;;;3.20;;
47155;SDS011;32908;52.344;16.858;2022-08-11T07:21:05;5.63;;;3.10;;
47155;SDS011;32908;52.344;16.858;2022-08-11T07:23:58;9.10;;;3.03;;
47155;SDS011;32908;52.344;16.858;2022-08-11T07:26:48;6.57;;;3.10;;
47155;SDS011;32908;52.344;16.858;2022-08-11T07:29:36;9.20;;;2.27;;
47155;SDS011;32908;52.344;16.858;2022-08-11T07:32:10;6.17;;;2.33;;
47155;SDS011;32908;52.344;16.858;2022-08-11T07:34:44;5.27;;;2.27;;
47155;SDS011;32908;52.344;16.858;2022-08-11T07:37:16;3.25;;;2.20;;
47155;SDS011;32908;52.344;16.858;2022-08-11T07:39:46;5.63;;;2.70;;
47155;SDS011;32908;52.344;16.858;2022-08-11T07:42:15;7.77;;;2.73;;
47155;SDS011;32908;52.344;16.858;2022-08-11T07:44:48;3.87;;;2.47;;
47155;SDS011;32908;52.344;16.858;2022-08-11T07:47:35;5.60;;;2.10;;
47155;SDS011;32908;52.344;16.858;2022-08-11T07:50:22;6.63;;;2.20;;
47155;SDS011;32908;52.344;16.858;2022-08-11T07:53:09;5.43;;;2.33;;
47155;SDS011;32908;52.344;16.858;2022-08-11T07:55:40;6.63;;;2.00;;
47155;SDS011;32908;52.344;16.858;2022-08-11T07:58:09;3.73;;;1.50;;
47155;SDS011;32908;52.344;16.858;2022-08-11T08:00:56;4.50;;;1.90;;
47155;SDS011;32908;52.344;16.858;2022-08-11T08:03:43;4.37;;;1.73;;
47155;SDS011;32908;52.344;16.858;2022-08-11T08:06:30;3.63;;;1.90;;
47155;SDS011;32908;52.344;16.858;2022-08-11T08:09:18;1.70;;;1.30;;
47155;SDS011;32908;52.344;16.858;2022-08-11T08:12:06;3.00;;;1.40;;
47155;SDS011;32908;52.344;16.858;2022-08-11T08:14:53;4.00;;;1.53;;
47155;SDS011;32908;52.344;16.858;2022-08-11T08:17:41;6.43;;;1.43;;
47155;SDS011;32908;52.344;16.858;2022-08-11T08:20:23;3.07;;;1.60;;
47155;SDS011;32908;52.344;16.858;2022-08-11T08:22:54;2.97;;;1.30;;
47155;SDS011;32908;52.344;16.858;2022-08-11T08:25:24;5.20;;;1.50;;
47155;SDS011;32908;52.344;16.858;2022-08-11T08:27:54;5.00;;;1.70;;
47155;SDS011;32908;52.344;16.858;2022-08-11T08:30:24;4.93;;;1.50;;
47155;SDS011;32908;52.344;16.858;2022-08-11T08:33:12;5.20;;;2.07;;
47155;SDS011;32908;52.344;16.858;2022-08-11T08:35:43;4.50;;;1.33;;
47155;SDS011;32908;52.344;16.858;2022-08-11T08:38:12;1.35;;;1.20;;
47155;SDS011;32908;52.344;16.858;2022-08-11T08:40:44;4.60;;;1.60;;
47155;SDS011;32908;52.344;16.858;2022-08-11T08:43:15;4.63;;;1.80;;
47155;SDS011;32908;52.344;16.858;2022-08-11T08:45:44;4.23;;;1.70;;
47155;SDS011;32908;52.344;16.858;2022-08-11T08:48:13;5.33;;;1.70;;
47155;SDS011;32908;52.344;16.858;2022-08-11T08:50:44;5.53;;;2.00;;
47155;SDS011;32908;52.344;16.858;2022-08-11T08:53:38;4.23;;;1.50;;
47155;SDS011;32908;52.344;16.858;2022-08-11T08:56:10;8.53;;;1.70;;
47155;SDS011;32908;52.344;16.858;2022-08-11T08:58:43;2.63;;;1.53;;
47155;SDS011;32908;52.344;16.858;2022-08-11T09:01:15;3.30;;;1.60;;
47155;SDS011;32908;52.344;16.858;2022-08-11T09:03:43;3.43;;;1.30;;
47155;SDS011;32908;52.344;16.858;2022-08-11T09:06:12;3.70;;;1.40;;
47155;SDS011;32908;52.344;16.858;2022-08-11T09:08:42;2.77;;;1.40;;
47155;SDS011;32908;52.344;16.858;2022-08-11T09:11:11;3.27;;;1.60;;
47155;SDS011;32908;52.344;16.858;2022-08-11T09:13:59;3.10;;;1.90;;
47155;SDS011;32908;52.344;16.858;2022-08-11T09:16:28;5.00;;;1.63;;
47155;SDS011;32908;52.344;16.858;2022-08-11T09:18:57;2.97;;;1.60;;
47155;SDS011;32908;52.344;16.858;2022-08-11T09:21:27;3.83;;;1.33;;
47155;SDS011;32908;52.344;16.858;2022-08-11T09:23:57;2.00;;;1.80;;
47155;SDS011;32908;52.344;16.858;2022-08-11T09:26:46;4.25;;;1.40;;
47155;SDS011;32908;52.344;16.858;2022-08-11T09:29:28;2.50;;;1.65;;
47155;SDS011;32908;52.344;16.858;2022-08-11T09:31:57;4.30;;;1.55;;
47155;SDS011;32908;52.344;16.858;2022-08-11T09:34:26;4.33;;;1.70;;
47155;SDS011;32908;52.344;16.858;2022-08-11T09:36:55;5.40;;;1.70;;
47155;SDS011;32908;52.344;16.858;2022-08-11T09:39:41;1.65;;;1.30;;
47155;SDS011;32908;52.344;16.858;2022-08-11T09:42:28;3.50;;;1.40;;
47155;SDS011;32908;52.344;16.858;2022-08-11T09:45:11;2.03;;;1.50;;
47155;SDS011;32908;52.344;16.858;2022-08-11T09:47:40;4.50;;;1.40;;
47155;SDS011;32908;52.344;16.858;2022-08-11T09:50:10;3.37;;;1.30;;
47155;SDS011;32908;52.344;16.858;2022-08-11T09:52:43;4.83;;;1.90;;
47155;SDS011;32908;52.344;16.858;2022-08-11T09:55:14;3.50;;;1.60;;
47155;SDS011;32908;52.344;16.858;2022-08-11T09:57:45;3.47;;;1.33;;
47155;SDS011;32908;52.344;16.858;2022-08-11T10:00:33;5.33;;;1.60;;
47155;SDS011;32908;52.344;16.858;2022-08-11T10:03:04;4.50;;;1.43;;
47155;SDS011;32908;52.344;16.858;2022-08-11T10:05:35;5.57;;;1.50;;
47155;SDS011;32908;52.344;16.858;2022-08-11T10:08:25;2.83;;;1.40;;
47155;SDS011;32908;52.344;16.858;2022-08-11T10:10:54;2.70;;;1.70;;
47155;SDS011;32908;52.344;16.858;2022-08-11T10:13:25;2.97;;;1.60;;
47155;SDS011;32908;52.344;16.858;2022-08-11T10:16:00;3.30;;;1.40;;
47155;SDS011;32908;52.344;16.858;2022-08-11T10:18:32;5.00;;;1.70;;
47155;SDS011;32908;52.344;16.858;2022-08-11T10:21:10;3.53;;;1.60;;
47155;SDS011;32908;52.344;16.858;2022-08-11T10:23:41;3.17;;;1.53;;
47155;SDS011;32908;52.344;16.858;2022-08-11T10:26:28;3.30;;;1.50;;
47155;SDS011;32908;52.344;16.858;2022-08-11T10:29:19;5.17;;;1.40;;
47155;SDS011;32908;52.344;16.858;2022-08-11T10:32:09;6.57;;;1.53;;
47155;SDS011;32908;52.344;16.858;2022-08-11T10:34:55;2.10;;;1.50;;
47155;SDS011;32908;52.344;16.858;2022-08-11T10:37:26;2.85;;;1.50;;
47155;SDS011;32908;52.344;16.858;2022-08-11T10:40:00;2.73;;;1.30;;
47155;SDS011;32908;52.344;16.858;2022-08-11T10:42:30;2.43;;;1.47;;
47155;SDS011;32908;52.344;16.858;2022-08-11T10:45:17;2.67;;;1.47;;
47155;SDS011;32908;52.344;16.858;2022-08-11T10:48:04;5.30;;;1.80;;
47155;SDS011;32908;52.344;16.858;2022-08-11T10:50:33;2.27;;;1.90;;
47155;SDS011;32908;52.344;16.858;2022-08-11T10:53:20;2.20;;;1.60;;
47155;SDS011;32908;52.344;16.858;2022-08-11T10:56:07;2.23;;;1.80;;
47155;SDS011;32908;52.344;16.858;2022-08-11T10:58:56;2.37;;;1.80;;
47155;SDS011;32908;52.344;16.858;2022-08-11T11:01:27;3.93;;;1.60;;
47155;SDS011;32908;52.344;16.858;2022-08-11T11:03:59;4.60;;;1.63;;
47155;SDS011;32908;52.344;16.858;2022-08-11T11:06:31;4.20;;;1.70;;
47155;SDS011;32908;52.344;16.858;2022-08-11T11:09:03;3.23;;;1.70;;
47155;SDS011;32908;52.344;16.858;2022-08-11T11:11:35;2.37;;;1.57;;
47155;SDS011;32908;52.344;16.858;2022-08-11T11:14:25;2.60;;;1.70;;
47155;SDS011;32908;52.344;16.858;2022-08-11T11:17:14;4.40;;;1.55;;
47155;SDS011;32908;52.344;16.858;2022-08-11T11:20:03;4.30;;;1.70;;
47155;SDS011;32908;52.344;16.858;2022-08-11T11:22:34;2.50;;;1.60;;
47155;SDS011;32908;52.344;16.858;2022-08-11T11:25:09;2.20;;;1.73;;
47155;SDS011;32908;52.344;16.858;2022-08-11T11:27:50;3.60;;;1.63;;
47155;SDS011;32908;52.344;16.858;2022-08-11T11:30:26;2.43;;;1.60;;
47155;SDS011;32908;52.344;16.858;2022-08-11T11:33:03;1.82;;;1.30;;
47155;SDS011;32908;52.344;16.858;2022-08-11T11:35:40;3.20;;;1.60;;
47155;SDS011;32908;52.344;16.858;2022-08-11T11:38:15;4.10;;;1.60;;
47155;SDS011;32908;52.344;16.858;2022-08-11T11:40:46;2.90;;;1.60;;
47155;SDS011;32908;52.344;16.858;2022-08-11T11:43:35;3.90;;;1.67;;
47155;SDS011;32908;52.344;16.858;2022-08-11T11:46:04;3.47;;;1.30;;
47155;SDS011;32908;52.344;16.858;2022-08-11T11:48:34;2.05;;;1.50;;
47155;SDS011;32908;52.344;16.858;2022-08-11T11:51:04;2.10;;;1.37;;
47155;SDS011;32908;52.344;16.858;2022-08-11T11:53:33;3.93;;;1.30;;
47155;SDS011;32908;52.344;16.858;2022-08-11T11:56:03;4.33;;;1.30;;
47155;SDS011;32908;52.344;16.858;2022-08-11T11:58:32;2.87;;;1.70;;
47155;SDS011;32908;52.344;16.858;2022-08-11T12:01:19;1.60;;;1.50;;
47155;SDS011;32908;52.344;16.858;2022-08-11T12:03:51;4.23;;;1.83;;
47155;SDS011;32908;52.344;16.858;2022-08-11T12:06:20;3.10;;;1.60;;
47155;SDS011;32908;52.344;16.858;2022-08-11T12:08:52;1.50;;;1.30;;
47155;SDS011;32908;52.344;16.858;2022-08-11T12:11:23;2.13;;;1.20;;
47155;SDS011;32908;52.344;16.858;2022-08-11T12:14:14;5.43;;;1.57;;
47155;SDS011;32908;52.344;16.858;2022-08-11T12:16:45;2.00;;;1.50;;
47155;SDS011;32908;52.344;16.858;2022-08-11T12:19:14;1.90;;;1.40;;
47155;SDS011;32908;52.344;16.858;2022-08-11T12:21:47;3.00;;;1.70;;
47155;SDS011;32908;52.344;16.858;2022-08-11T12:24:34;3.70;;;1.57;;
47155;SDS011;32908;52.344;16.858;2022-08-11T12:27:21;3.43;;;1.53;;
47155;SDS011;32908;52.344;16.858;2022-08-11T12:29:51;2.53;;;1.80;;
47155;SDS011;32908;52.344;16.858;2022-08-11T12:32:21;2.37;;;1.47;;
47155;SDS011;32908;52.344;16.858;2022-08-11T12:34:51;2.30;;;1.30;;
47155;SDS011;32908;52.344;16.858;2022-08-11T12:37:23;1.40;;;1.20;;
47155;SDS011;32908;52.344;16.858;2022-08-11T12:39:58;5.10;;;1.50;;
47155;SDS011;32908;52.344;16.858;2022-08-11T12:42:48;2.53;;;1.43;;
47155;SDS011;32908;52.344;16.858;2022-08-11T12:45:35;5.87;;;1.40;;
47155;SDS011;32908;52.344;16.858;2022-08-11T12:48:07;3.15;;;1.35;;
47155;SDS011;32908;52.344;16.858;2022-08-11T12:50:56;1.93;;;1.40;;
47155;SDS011;32908;52.344;16.858;2022-08-11T12:53:50;2.87;;;1.30;;
47155;SDS011;32908;52.344;16.858;2022-08-11T12:56:20;3.83;;;1.70;;
47155;SDS011;32908;52.344;16.858;2022-08-11T12:59:07;2.60;;;1.40;;
47155;SDS011;32908;52.344;16.858;2022-08-11T13:01:55;7.20;;;1.40;;
47155;SDS011;32908;52.344;16.858;2022-08-11T13:04:42;3.83;;;1.50;;
47155;SDS011;32908;52.344;16.858;2022-08-11T13:07:21;1.57;;;1.30;;
47155;SDS011;32908;52.344;16.858;2022-08-11T13:09:50;2.23;;;1.43;;
47155;SDS011;32908;52.344;16.858;2022-08-11T13:12:19;3.70;;;1.85;;
47155;SDS011;32908;52.344;16.858;2022-08-11T13:15:09;5.17;;;1.63;;
47155;SDS011;32908;52.344;16.858;2022-08-11T13:17:44;8.53;;;1.93;;
47155;SDS011;32908;52.344;16.858;2022-08-11T13:20:16;3.07;;;1.60;;
47155;SDS011;32908;52.344;16.858;2022-08-11T13:22:48;2.90;;;1.33;;
47155;SDS011;32908;52.344;16.858;2022-08-11T13:25:20;2.50;;;1.40;;
47155;SDS011;32908;52.344;16.858;2022-08-11T13:27:50;3.43;;;1.70;;
47155;SDS011;32908;52.344;16.858;2022-08-11T13:30:22;4.57;;;1.60;;
47155;SDS011;32908;52.344;16.858;2022-08-11T13:33:12;3.83;;;1.37;;
47155;SDS011;32908;52.344;16.858;2022-08-11T13:35:45;6.90;;;1.50;;
47155;SDS011;32908;52.344;16.858;2022-08-11T13:38:15;1.60;;;1.50;;
47155;SDS011;32908;52.344;16.858;2022-08-11T13:40:45;2.43;;;1.40;;
47155;SDS011;32908;52.344;16.858;2022-08-11T13:43:15;4.10;;;1.63;;
47155;SDS011;32908;52.344;16.858;2022-08-11T13:45:43;8.87;;;1.57;;
47155;SDS011;32908;52.344;16.858;2022-08-11T13:48:36;4.47;;;1.50;;
47155;SDS011;32908;52.344;16.858;2022-08-11T13:51:05;5.23;;;1.43;;
47155;SDS011;32908;52.344;16.858;2022-08-11T13:53:52;6.77;;;1.80;;
47155;SDS011;32908;52.344;16.858;2022-08-11T13:56:21;3.90;;;1.63;;
47155;SDS011;32908;52.344;16.858;2022-08-11T13:58:51;3.13;;;1.50;;
47155;SDS011;32908;52.344;16.858;2022-08-11T14:01:20;1.43;;;1.33;;
47155;SDS011;32908;52.344;16.858;2022-08-11T14:03:52;2.50;;;1.37;;
47155;SDS011;32908;52.344;16.858;2022-08-11T14:06:21;4.17;;;1.50;;
47155;SDS011;32908;52.344;16.858;2022-08-11T14:08:50;1.57;;;1.07;;
47155;SDS011;32908;52.344;16.858;2022-08-11T14:11:20;8.07;;;1.40;;
47155;SDS011;32908;52.344;16.858;2022-08-11T14:14:07;2.03;;;1.30;;
47155;SDS011;32908;52.344;16.858;2022-08-11T14:16:39;1.55;;;1.40;;
47155;SDS011;32908;52.344;16.858;2022-08-11T14:19:11;6.23;;;1.60;;
47155;SDS011;32908;52.344;16.858;2022-08-11T14:21:41;4.70;;;1.60;;
47155;SDS011;32908;52.344;16.858;2022-08-11T14:24:28;3.43;;;1.80;;
47155;SDS011;32908;52.344;16.858;2022-08-11T14:26:58;3.93;;;1.40;;
47155;SDS011;32908;52.344;16.858;2022-08-11T14:29:28;3.40;;;1.40;;
47155;SDS011;32908;52.344;16.858;2022-08-11T14:31:59;4.47;;;1.57;;
47155;SDS011;32908;52.344;16.858;2022-08-11T14:34:30;3.40;;;1.30;;
47155;SDS011;32908;52.344;16.858;2022-08-11T14:37:01;3.27;;;1.20;;
47155;SDS011;32908;52.344;16.858;2022-08-11T14:39:33;1.77;;;1.47;;
47155;SDS011;32908;52.344;16.858;2022-08-11T14:42:06;5.37;;;1.50;;
47155;SDS011;32908;52.344;16.858;2022-08-11T14:44:54;3.43;;;1.40;;
47155;SDS011;32908;52.344;16.858;2022-08-11T14:47:42;3.23;;;1.83;;
47155;SDS011;32908;52.344;16.858;2022-08-11T14:50:15;5.43;;;1.30;;
47155;SDS011;32908;52.344;16.858;2022-08-11T14:52:49;2.53;;;1.30;;
47155;SDS011;32908;52.344;16.858;2022-08-11T14:55:22;3.00;;;1.25;;
47155;SDS011;32908;52.344;16.858;2022-08-11T14:58:10;2.97;;;1.23;;
47155;SDS011;32908;52.344;16.858;2022-08-11T15:00:40;2.40;;;1.30;;
47155;SDS011;32908;52.344;16.858;2022-08-11T15:03:10;3.40;;;1.70;;
47155;SDS011;32908;52.344;16.858;2022-08-11T15:05:54;1.90;;;1.60;;
47155;SDS011;32908;52.344;16.858;2022-08-11T15:08:26;4.00;;;1.60;;
47155;SDS011;32908;52.344;16.858;2022-08-11T15:11:14;1.30;;;1.10;;
47155;SDS011;32908;52.344;16.858;2022-08-11T15:14:02;3.47;;;1.40;;
47155;SDS011;32908;52.344;16.858;2022-08-11T15:16:33;2.77;;;1.20;;
47155;SDS011;32908;52.344;16.858;2022-08-11T15:19:21;4.05;;;1.40;;
47155;SDS011;32908;52.344;16.858;2022-08-11T15:21:58;2.13;;;1.30;;
47155;SDS011;32908;52.344;16.858;2022-08-11T15:24:44;7.50;;;1.30;;
47155;SDS011;32908;52.344;16.858;2022-08-11T15:27:15;2.77;;;1.47;;
47155;SDS011;32908;52.344;16.858;2022-08-11T15:30:12;3.60;;;1.40;;
47155;SDS011;32908;52.344;16.858;2022-08-11T15:33:01;3.60;;;1.50;;
47155;SDS011;32908;52.344;16.858;2022-08-11T15:35:48;3.23;;;1.97;;
47155;SDS011;32908;52.344;16.858;2022-08-11T15:38:36;4.63;;;1.50;;
47155;SDS011;32908;52.344;16.858;2022-08-11T15:41:08;3.47;;;1.70;;
47155;SDS011;32908;52.344;16.858;2022-08-11T15:43:58;3.30;;;1.63;;
47155;SDS011;32908;52.344;16.858;2022-08-11T15:46:50;4.57;;;1.40;;
47155;SDS011;32908;52.344;16.858;2022-08-11T15:49:23;3.57;;;1.60;;
47155;SDS011;32908;52.344;16.858;2022-08-11T15:51:59;4.17;;;1.70;;
47155;SDS011;32908;52.344;16.858;2022-08-11T15:54:31;2.47;;;1.97;;
47155;SDS011;32908;52.344;16.858;2022-08-11T15:57:06;3.42;;;1.98;;
47155;SDS011;32908;52.344;16.858;2022-08-11T15:59:36;6.40;;;1.60;;
47155;SDS011;32908;52.344;16.858;2022-08-11T16:02:25;3.40;;;1.45;;
47155;SDS011;32908;52.344;16.858;2022-08-11T16:05:12;3.97;;;1.60;;
47155;SDS011;32908;52.344;16.858;2022-08-11T16:07:43;1.63;;;1.53;;
47155;SDS011;32908;52.344;16.858;2022-08-11T16:10:14;5.33;;;1.70;;
47155;SDS011;32908;52.344;16.858;2022-08-11T16:12:48;5.90;;;2.17;;
47155;SDS011;32908;52.344;16.858;2022-08-11T16:15:43;2.93;;;1.53;;
47155;SDS011;32908;52.344;16.858;2022-08-11T16:18:40;7.03;;;2.00;;
47155;SDS011;32908;52.344;16.858;2022-08-11T16:21:13;2.62;;;1.55;;
47155;SDS011;32908;52.344;16.858;2022-08-11T16:23:45;4.10;;;1.43;;
47155;SDS011;32908;52.344;16.858;2022-08-11T16:26:16;2.50;;;1.70;;
47155;SDS011;32908;52.344;16.858;2022-08-11T16:28:49;1.80;;;1.30;;
47155;SDS011;32908;52.344;16.858;2022-08-11T16:31:20;5.00;;;1.63;;
47155;SDS011;32908;52.344;16.858;2022-08-11T16:33:51;2.37;;;1.33;;
47155;SDS011;32908;52.344;16.858;2022-08-11T16:36:21;3.25;;;1.30;;